Portada
METAR-TAF:

METAR-TAF

Aeropuertos :

Aeropuerto Internacional de Talagi

Arjángelsk, Rusia

latitud: 64-30N, longitud: 040-44E, altitud: 13 m

Observación

El informe se hizo hace 26 minutos, a las 23:30 UTC
Viento 2 kt con dirección variable
Temperatura 7°C
Humedad 100%
Presión 1002 hPa
Visibilidad 10 km o más
Cielo nuboso a una altura de 3100 ft

METAR: ULAA 242330Z VRB01MPS 9999 BKN031 07/07 Q1002 R08/290060 NOSIG RMK QFE750/1001

Hora: 02:56 (23:56 UTC)


TAF: falta

Observaciones y pronósticos meteorológicos de más de 4000 aeropuertos (mensajes METAR y TAF).

Los puntos amarillos y rojos representan las estaciones disponibles.

Ponga el ratón en el punto deseado para ver el nombre de la estación.

Haga clic para ver las observaciones y los pronósticos meteorológicos.

Para cambiar el mapa : haga clic en los botones verdes con una cruz de color negro para hacer un zoom, en el botón verde con un guión para alejar o en las flechas verdes para mapas adyacentes.


METAR-TAF: